sensor_id;sensor_type;location;lat;lon;timestamp;P1;durP1;ratioP1;P2;durP2;ratioP2
68010;SDS011;54794;48.348;7.878;2022-12-20T00:02:15;5.18;;;3.40;;
68010;SDS011;54794;48.348;7.878;2022-12-20T00:04:49;5.68;;;3.50;;
68010;SDS011;54794;48.348;7.878;2022-12-20T00:07:35;5.35;;;3.65;;
68010;SDS011;54794;48.348;7.878;2022-12-20T00:10:31;4.30;;;2.92;;
68010;SDS011;54794;48.348;7.878;2022-12-20T00:13:28;4.28;;;2.58;;
68010;SDS011;54794;48.348;7.878;2022-12-20T00:16:32;5.35;;;2.55;;
68010;SDS011;54794;48.348;7.878;2022-12-20T00:19:10;5.88;;;2.70;;
68010;SDS011;54794;48.348;7.878;2022-12-20T00:22:00;3.38;;;1.60;;
68010;SDS011;54794;48.348;7.878;2022-12-20T00:24:33;3.85;;;1.65;;
68010;SDS011;54794;48.348;7.878;2022-12-20T00:27:20;3.20;;;1.60;;
68010;SDS011;54794;48.348;7.878;2022-12-20T00:30:05;1.30;;;0.95;;
68010;SDS011;54794;48.348;7.878;2022-12-20T00:33:01;2.55;;;1.30;;
68010;SDS011;54794;48.348;7.878;2022-12-20T00:35:45;1.95;;;0.90;;
68010;SDS011;54794;48.348;7.878;2022-12-20T00:38:39;1.40;;;0.93;;
68010;SDS011;54794;48.348;7.878;2022-12-20T00:41:33;1.63;;;0.98;;
68010;SDS011;54794;48.348;7.878;2022-12-20T00:44:16;2.47;;;1.00;;
68010;SDS011;54794;48.348;7.878;2022-12-20T00:46:56;2.50;;;0.85;;
68010;SDS011;54794;48.348;7.878;2022-12-20T00:52:37;1.55;;;0.90;;
68010;SDS011;54794;48.348;7.878;2022-12-20T00:55:16;1.70;;;0.85;;
68010;SDS011;54794;48.348;7.878;2022-12-20T00:58:03;0.63;;;0.40;;
68010;SDS011;54794;48.348;7.878;2022-12-20T01:00:44;1.02;;;0.60;;
68010;SDS011;54794;48.348;7.878;2022-12-20T01:03:34;0.90;;;0.50;;
68010;SDS011;54794;48.348;7.878;2022-12-20T01:06:46;1.05;;;0.50;;
68010;SDS011;54794;48.348;7.878;2022-12-20T01:09:27;1.25;;;0.70;;
68010;SDS011;54794;48.348;7.878;2022-12-20T01:12:14;1.55;;;0.60;;
68010;SDS011;54794;48.348;7.878;2022-12-20T01:15:26;1.13;;;0.60;;
68010;SDS011;54794;48.348;7.878;2022-12-20T01:18:17;0.60;;;0.40;;
68010;SDS011;54794;48.348;7.878;2022-12-20T01:21:25;1.67;;;0.77;;
68010;SDS011;54794;48.348;7.878;2022-12-20T01:24:12;1.48;;;0.65;;
68010;SDS011;54794;48.348;7.878;2022-12-20T01:27:16;0.88;;;0.55;;
68010;SDS011;54794;48.348;7.878;2022-12-20T01:30:11;0.82;;;0.55;;
68010;SDS011;54794;48.348;7.878;2022-12-20T01:35:17;1.77;;;0.70;;
68010;SDS011;54794;48.348;7.878;2022-12-20T01:38:20;1.00;;;0.60;;
68010;SDS011;54794;48.348;7.878;2022-12-20T01:41:00;0.73;;;0.45;;
68010;SDS011;54794;48.348;7.878;2022-12-20T01:43:45;1.08;;;0.70;;
68010;SDS011;54794;48.348;7.878;2022-12-20T01:46:32;1.13;;;0.60;;
68010;SDS011;54794;48.348;7.878;2022-12-20T01:55:15;1.05;;;0.60;;
68010;SDS011;54794;48.348;7.878;2022-12-20T01:58:07;0.88;;;0.57;;
68010;SDS011;54794;48.348;7.878;2022-12-20T02:00:54;1.35;;;0.88;;
68010;SDS011;54794;48.348;7.878;2022-12-20T02:03:53;1.17;;;0.63;;
68010;SDS011;54794;48.348;7.878;2022-12-20T02:06:34;1.10;;;0.60;;
68010;SDS011;54794;48.348;7.878;2022-12-20T02:12:18;2.25;;;0.65;;
68010;SDS011;54794;48.348;7.878;2022-12-20T02:21:21;2.22;;;0.55;;
68010;SDS011;54794;48.348;7.878;2022-12-20T02:31:28;1.00;;;0.65;;
68010;SDS011;54794;48.348;7.878;2022-12-20T02:34:17;3.08;;;0.70;;
68010;SDS011;54794;48.348;7.878;2022-12-20T02:40:14;1.00;;;0.60;;
68010;SDS011;54794;48.348;7.878;2022-12-20T02:42:59;1.35;;;0.60;;
68010;SDS011;54794;48.348;7.878;2022-12-20T02:46:08;1.92;;;0.70;;
68010;SDS011;54794;48.348;7.878;2022-12-20T02:48:55;1.50;;;0.57;;
68010;SDS011;54794;48.348;7.878;2022-12-20T02:51:35;1.17;;;0.73;;
68010;SDS011;54794;48.348;7.878;2022-12-20T02:54:21;1.10;;;0.70;;
68010;SDS011;54794;48.348;7.878;2022-12-20T03:00:57;1.50;;;0.80;;
68010;SDS011;54794;48.348;7.878;2022-12-20T03:03:54;1.60;;;0.65;;
68010;SDS011;54794;48.348;7.878;2022-12-20T03:06:59;1.60;;;0.80;;
68010;SDS011;54794;48.348;7.878;2022-12-20T03:09:48;2.53;;;1.20;;
68010;SDS011;54794;48.348;7.878;2022-12-20T03:12:26;2.50;;;0.90;;
68010;SDS011;54794;48.348;7.878;2022-12-20T03:15:09;1.55;;;0.90;;
68010;SDS011;54794;48.348;7.878;2022-12-20T03:17:50;1.15;;;0.60;;
68010;SDS011;54794;48.348;7.878;2022-12-20T03:20:53;1.00;;;0.70;;
68010;SDS011;54794;48.348;7.878;2022-12-20T03:23:27;1.23;;;0.98;;
68010;SDS011;54794;48.348;7.878;2022-12-20T03:26:02;1.48;;;0.77;;
68010;SDS011;54794;48.348;7.878;2022-12-20T03:28:47;1.23;;;0.80;;
68010;SDS011;54794;48.348;7.878;2022-12-20T03:34:43;1.05;;;0.73;;
68010;SDS011;54794;48.348;7.878;2022-12-20T03:37:34;1.45;;;0.60;;
68010;SDS011;54794;48.348;7.878;2022-12-20T03:40:23;2.00;;;0.70;;
68010;SDS011;54794;48.348;7.878;2022-12-20T03:43:24;0.97;;;0.60;;
68010;SDS011;54794;48.348;7.878;2022-12-20T03:45:59;0.75;;;0.52;;
68010;SDS011;54794;48.348;7.878;2022-12-20T03:48:37;0.82;;;0.50;;
68010;SDS011;54794;48.348;7.878;2022-12-20T03:51:48;1.10;;;0.60;;
68010;SDS011;54794;48.348;7.878;2022-12-20T03:54:47;1.27;;;0.52;;
68010;SDS011;54794;48.348;7.878;2022-12-20T03:57:29;0.80;;;0.60;;
68010;SDS011;54794;48.348;7.878;2022-12-20T04:00:11;0.75;;;0.60;;
68010;SDS011;54794;48.348;7.878;2022-12-20T04:02:52;1.83;;;0.85;;
68010;SDS011;54794;48.348;7.878;2022-12-20T04:05:41;1.70;;;0.93;;
68010;SDS011;54794;48.348;7.878;2022-12-20T04:08:45;1.60;;;0.95;;
68010;SDS011;54794;48.348;7.878;2022-12-20T04:11:53;2.13;;;1.00;;
68010;SDS011;54794;48.348;7.878;2022-12-20T04:14:52;1.17;;;0.68;;
68010;SDS011;54794;48.348;7.878;2022-12-20T04:17:45;2.90;;;0.65;;
68010;SDS011;54794;48.348;7.878;2022-12-20T04:20:27;0.82;;;0.50;;
68010;SDS011;54794;48.348;7.878;2022-12-20T04:23:19;0.68;;;0.50;;
68010;SDS011;54794;48.348;7.878;2022-12-20T04:26:12;1.20;;;0.50;;
68010;SDS011;54794;48.348;7.878;2022-12-20T04:28:50;0.75;;;0.52;;
68010;SDS011;54794;48.348;7.878;2022-12-20T04:31:35;0.70;;;0.50;;
68010;SDS011;54794;48.348;7.878;2022-12-20T04:34:24;1.08;;;0.50;;
68010;SDS011;54794;48.348;7.878;2022-12-20T04:37:08;0.98;;;0.60;;
68010;SDS011;54794;48.348;7.878;2022-12-20T04:39:48;0.90;;;0.57;;
68010;SDS011;54794;48.348;7.878;2022-12-20T04:42:36;1.23;;;0.70;;
68010;SDS011;54794;48.348;7.878;2022-12-20T04:45:43;1.00;;;0.70;;
68010;SDS011;54794;48.348;7.878;2022-12-20T04:48:29;1.27;;;0.60;;
68010;SDS011;54794;48.348;7.878;2022-12-20T04:51:46;1.73;;;0.55;;
68010;SDS011;54794;48.348;7.878;2022-12-20T04:54:28;0.77;;;0.60;;
68010;SDS011;54794;48.348;7.878;2022-12-20T04:57:25;1.45;;;0.77;;
68010;SDS011;54794;48.348;7.878;2022-12-20T05:00:20;1.20;;;0.75;;
68010;SDS011;54794;48.348;7.878;2022-12-20T05:03:20;1.10;;;0.70;;
68010;SDS011;54794;48.348;7.878;2022-12-20T05:06:33;1.17;;;0.77;;
68010;SDS011;54794;48.348;7.878;2022-12-20T05:09:28;0.95;;;0.70;;
68010;SDS011;54794;48.348;7.878;2022-12-20T05:12:08;1.67;;;0.60;;
68010;SDS011;54794;48.348;7.878;2022-12-20T05:15:00;2.67;;;1.00;;
68010;SDS011;54794;48.348;7.878;2022-12-20T05:17:44;1.50;;;0.90;;
68010;SDS011;54794;48.348;7.878;2022-12-20T05:20:12;1.77;;;0.88;;
68010;SDS011;54794;48.348;7.878;2022-12-20T05:22:59;2.28;;;1.30;;
68010;SDS011;54794;48.348;7.878;2022-12-20T05:25:56;1.98;;;1.15;;
68010;SDS011;54794;48.348;7.878;2022-12-20T05:29:14;1.65;;;0.90;;
68010;SDS011;54794;48.348;7.878;2022-12-20T05:32:09;1.25;;;0.90;;
68010;SDS011;54794;48.348;7.878;2022-12-20T05:34:48;2.42;;;1.30;;
68010;SDS011;54794;48.348;7.878;2022-12-20T05:37:34;1.23;;;0.90;;
68010;SDS011;54794;48.348;7.878;2022-12-20T05:40:26;2.15;;;1.23;;
68010;SDS011;54794;48.348;7.878;2022-12-20T05:44:01;2.30;;;1.23;;
68010;SDS011;54794;48.348;7.878;2022-12-20T05:49:55;1.83;;;1.02;;
68010;SDS011;54794;48.348;7.878;2022-12-20T05:52:55;2.13;;;1.35;;
68010;SDS011;54794;48.348;7.878;2022-12-20T05:55:46;2.10;;;1.50;;
68010;SDS011;54794;48.348;7.878;2022-12-20T05:58:41;2.40;;;1.13;;
68010;SDS011;54794;48.348;7.878;2022-12-20T06:01:33;3.63;;;1.58;;
68010;SDS011;54794;48.348;7.878;2022-12-20T06:04:42;3.30;;;1.75;;
68010;SDS011;54794;48.348;7.878;2022-12-20T06:07:34;6.00;;;1.77;;
68010;SDS011;54794;48.348;7.878;2022-12-20T06:10:37;3.22;;;1.77;;
68010;SDS011;54794;48.348;7.878;2022-12-20T06:13:30;3.67;;;2.65;;
68010;SDS011;54794;48.348;7.878;2022-12-20T06:16:31;3.45;;;2.38;;
68010;SDS011;54794;48.348;7.878;2022-12-20T06:19:10;4.07;;;2.22;;
68010;SDS011;54794;48.348;7.878;2022-12-20T06:21:47;3.42;;;2.28;;
68010;SDS011;54794;48.348;7.878;2022-12-20T06:24:17;3.25;;;2.20;;
68010;SDS011;54794;48.348;7.878;2022-12-20T06:27:19;2.53;;;2.00;;
68010;SDS011;54794;48.348;7.878;2022-12-20T06:29:48;2.30;;;1.77;;
68010;SDS011;54794;48.348;7.878;2022-12-20T06:32:19;2.80;;;1.98;;
68010;SDS011;54794;48.348;7.878;2022-12-20T06:34:49;5.47;;;1.70;;
68010;SDS011;54794;48.348;7.878;2022-12-20T06:37:24;2.20;;;1.45;;
68010;SDS011;54794;48.348;7.878;2022-12-20T06:39:55;3.95;;;1.88;;
68010;SDS011;54794;48.348;7.878;2022-12-20T06:42:23;3.97;;;2.08;;
68010;SDS011;54794;48.348;7.878;2022-12-20T06:44:50;3.25;;;1.83;;
68010;SDS011;54794;48.348;7.878;2022-12-20T06:47:22;3.47;;;2.10;;
68010;SDS011;54794;48.348;7.878;2022-12-20T06:49:54;4.35;;;2.10;;
68010;SDS011;54794;48.348;7.878;2022-12-20T06:52:48;3.03;;;2.08;;
68010;SDS011;54794;48.348;7.878;2022-12-20T06:56:04;15.13;;;8.73;;
68010;SDS011;54794;48.348;7.878;2022-12-20T06:58:41;4.65;;;2.95;;
68010;SDS011;54794;48.348;7.878;2022-12-20T07:04:32;3.53;;;2.38;;
68010;SDS011;54794;48.348;7.878;2022-12-20T07:07:44;4.53;;;2.53;;
68010;SDS011;54794;48.348;7.878;2022-12-20T07:10:27;4.22;;;2.45;;
68010;SDS011;54794;48.348;7.878;2022-12-20T07:16:34;6.53;;;2.70;;
68010;SDS011;54794;48.348;7.878;2022-12-20T07:19:10;3.80;;;2.33;;
68010;SDS011;54794;48.348;7.878;2022-12-20T07:21:48;5.38;;;2.35;;
68010;SDS011;54794;48.348;7.878;2022-12-20T07:24:31;3.25;;;2.10;;
68010;SDS011;54794;48.348;7.878;2022-12-20T07:27:18;3.38;;;2.45;;
68010;SDS011;54794;48.348;7.878;2022-12-20T07:29:51;2.85;;;1.92;;
68010;SDS011;54794;48.348;7.878;2022-12-20T07:35:58;2.13;;;1.55;;
68010;SDS011;54794;48.348;7.878;2022-12-20T07:39:30;2.42;;;1.40;;
68010;SDS011;54794;48.348;7.878;2022-12-20T07:42:18;2.17;;;1.38;;
68010;SDS011;54794;48.348;7.878;2022-12-20T07:45:19;1.58;;;1.15;;
68010;SDS011;54794;48.348;7.878;2022-12-20T07:48:25;2.60;;;1.50;;
68010;SDS011;54794;48.348;7.878;2022-12-20T07:51:34;15.63;;;1.83;;
68010;SDS011;54794;48.348;7.878;2022-12-20T07:54:27;2.67;;;1.20;;
68010;SDS011;54794;48.348;7.878;2022-12-20T07:57:19;2.58;;;1.40;;
68010;SDS011;54794;48.348;7.878;2022-12-20T08:00:36;2.50;;;1.30;;
68010;SDS011;54794;48.348;7.878;2022-12-20T08:03:21;1.80;;;1.10;;
68010;SDS011;54794;48.348;7.878;2022-12-20T08:06:21;1.58;;;1.02;;
68010;SDS011;54794;48.348;7.878;2022-12-20T08:09:11;2.03;;;1.27;;
68010;SDS011;54794;48.348;7.878;2022-12-20T08:12:22;2.60;;;1.50;;
68010;SDS011;54794;48.348;7.878;2022-12-20T08:15:07;2.25;;;1.40;;
68010;SDS011;54794;48.348;7.878;2022-12-20T08:17:44;1.60;;;1.10;;
68010;SDS011;54794;48.348;7.878;2022-12-20T08:20:38;3.03;;;1.55;;
68010;SDS011;54794;48.348;7.878;2022-12-20T08:27:14;2.85;;;1.50;;
68010;SDS011;54794;48.348;7.878;2022-12-20T08:29:53;2.38;;;1.38;;
68010;SDS011;54794;48.348;7.878;2022-12-20T08:32:19;3.10;;;1.35;;
68010;SDS011;54794;48.348;7.878;2022-12-20T08:34:46;3.17;;;1.77;;
68010;SDS011;54794;48.348;7.878;2022-12-20T08:37:16;4.18;;;2.25;;
68010;SDS011;54794;48.348;7.878;2022-12-20T08:39:46;4.43;;;1.92;;
68010;SDS011;54794;48.348;7.878;2022-12-20T08:42:43;3.15;;;1.58;;
68010;SDS011;54794;48.348;7.878;2022-12-20T08:45:35;5.28;;;1.77;;
68010;SDS011;54794;48.348;7.878;2022-12-20T08:48:38;5.03;;;2.40;;
68010;SDS011;54794;48.348;7.878;2022-12-20T08:51:35;3.63;;;1.80;;
68010;SDS011;54794;48.348;7.878;2022-12-20T08:54:24;3.08;;;1.77;;
68010;SDS011;54794;48.348;7.878;2022-12-20T08:57:14;2.88;;;1.70;;
68010;SDS011;54794;48.348;7.878;2022-12-20T09:00:00;3.08;;;1.80;;
68010;SDS011;54794;48.348;7.878;2022-12-20T09:03:07;2.97;;;1.67;;
68010;SDS011;54794;48.348;7.878;2022-12-20T09:06:03;3.10;;;1.52;;
68010;SDS011;54794;48.348;7.878;2022-12-20T09:09:16;3.38;;;1.35;;
68010;SDS011;54794;48.348;7.878;2022-12-20T09:11:52;2.03;;;1.30;;
68010;SDS011;54794;48.348;7.878;2022-12-20T09:14:34;2.67;;;1.70;;
68010;SDS011;54794;48.348;7.878;2022-12-20T09:17:12;1.80;;;1.33;;
68010;SDS011;54794;48.348;7.878;2022-12-20T09:19:53;5.70;;;2.17;;
68010;SDS011;54794;48.348;7.878;2022-12-20T09:22:30;3.70;;;2.13;;
68010;SDS011;54794;48.348;7.878;2022-12-20T09:25:12;4.88;;;2.63;;
68010;SDS011;54794;48.348;7.878;2022-12-20T09:27:53;11.00;;;6.03;;
68010;SDS011;54794;48.348;7.878;2022-12-20T09:31:10;7.20;;;2.97;;
68010;SDS011;54794;48.348;7.878;2022-12-20T09:34:26;3.72;;;2.22;;
68010;SDS011;54794;48.348;7.878;2022-12-20T09:37:18;3.50;;;1.95;;
68010;SDS011;54794;48.348;7.878;2022-12-20T09:39:55;3.55;;;2.20;;
68010;SDS011;54794;48.348;7.878;2022-12-20T09:42:42;2.50;;;1.95;;
68010;SDS011;54794;48.348;7.878;2022-12-20T09:45:34;3.30;;;2.00;;
68010;SDS011;54794;48.348;7.878;2022-12-20T10:01:39;7.68;;;4.88;;
68010;SDS011;54794;48.348;7.878;2022-12-20T10:04:41;8.15;;;4.72;;
68010;SDS011;54794;48.348;7.878;2022-12-20T10:07:36;7.30;;;5.03;;
68010;SDS011;54794;48.348;7.878;2022-12-20T10:11:01;8.15;;;4.85;;
68010;SDS011;54794;48.348;7.878;2022-12-20T10:14:45;7.90;;;4.45;;
68010;SDS011;54794;48.348;7.878;2022-12-20T10:24:10;6.55;;;4.18;;
68010;SDS011;54794;48.348;7.878;2022-12-20T10:29:44;5.15;;;3.30;;
68010;SDS011;54794;48.348;7.878;2022-12-20T10:32:34;6.22;;;3.65;;
68010;SDS011;54794;48.348;7.878;2022-12-20T10:35:43;5.45;;;3.40;;
68010;SDS011;54794;48.348;7.878;2022-12-20T10:39:01;4.28;;;3.28;;
68010;SDS011;54794;48.348;7.878;2022-12-20T10:42:18;5.72;;;3.83;;
68010;SDS011;54794;48.348;7.878;2022-12-20T10:48:35;6.53;;;3.45;;
68010;SDS011;54794;48.348;7.878;2022-12-20T10:51:50;4.53;;;3.10;;
68010;SDS011;54794;48.348;7.878;2022-12-20T10:54:43;5.68;;;3.30;;
68010;SDS011;54794;48.348;7.878;2022-12-20T10:57:23;6.35;;;2.90;;
68010;SDS011;54794;48.348;7.878;2022-12-20T11:00:04;5.18;;;3.00;;
68010;SDS011;54794;48.348;7.878;2022-12-20T11:03:03;3.92;;;2.67;;
68010;SDS011;54794;48.348;7.878;2022-12-20T11:06:08;5.15;;;2.92;;
68010;SDS011;54794;48.348;7.878;2022-12-20T11:12:08;4.80;;;3.03;;
68010;SDS011;54794;48.348;7.878;2022-12-20T11:28:33;5.25;;;2.83;;
68010;SDS011;54794;48.348;7.878;2022-12-20T11:35:19;3.92;;;1.98;;
68010;SDS011;54794;48.348;7.878;2022-12-20T11:40:53;2.63;;;1.80;;
68010;SDS011;54794;48.348;7.878;2022-12-20T11:47:00;2.20;;;1.33;;
68010;SDS011;54794;48.348;7.878;2022-12-20T11:55:21;2.65;;;1.88;;
68010;SDS011;54794;48.348;7.878;2022-12-20T12:01:08;5.30;;;3.05;;
68010;SDS011;54794;48.348;7.878;2022-12-20T12:03:44;4.07;;;2.70;;
68010;SDS011;54794;48.348;7.878;2022-12-20T12:06:41;5.15;;;3.25;;
68010;SDS011;54794;48.348;7.878;2022-12-20T12:09:37;4.63;;;2.75;;
68010;SDS011;54794;48.348;7.878;2022-12-20T12:12:44;5.03;;;2.92;;
68010;SDS011;54794;48.348;7.878;2022-12-20T12:15:33;5.07;;;3.65;;
68010;SDS011;54794;48.348;7.878;2022-12-20T12:18:29;6.03;;;3.60;;
68010;SDS011;54794;48.348;7.878;2022-12-20T12:26:45;8.13;;;5.13;;
68010;SDS011;54794;48.348;7.878;2022-12-20T12:29:23;9.10;;;4.88;;
68010;SDS011;54794;48.348;7.878;2022-12-20T12:46:29;3.35;;;2.00;;
68010;SDS011;54794;48.348;7.878;2022-12-20T13:00:01;4.22;;;1.20;;
68010;SDS011;54794;48.348;7.878;2022-12-20T13:06:49;3.38;;;1.60;;
68010;SDS011;54794;48.348;7.878;2022-12-20T13:09:44;3.80;;;1.98;;
68010;SDS011;54794;48.348;7.878;2022-12-20T13:18:21;3.75;;;1.70;;
68010;SDS011;54794;48.348;7.878;2022-12-20T13:36:31;2.30;;;1.20;;
68010;SDS011;54794;48.348;7.878;2022-12-20T13:42:21;1.85;;;1.17;;
68010;SDS011;54794;48.348;7.878;2022-12-20T13:45:47;2.15;;;1.08;;
68010;SDS011;54794;48.348;7.878;2022-12-20T13:51:47;2.42;;;1.23;;
68010;SDS011;54794;48.348;7.878;2022-12-20T13:54:23;2.22;;;1.40;;
68010;SDS011;54794;48.348;7.878;2022-12-20T13:57:43;2.95;;;1.38;;
68010;SDS011;54794;48.348;7.878;2022-12-20T14:01:11;1.98;;;1.10;;
68010;SDS011;54794;48.348;7.878;2022-12-20T14:04:21;2.00;;;1.20;;
68010;SDS011;54794;48.348;7.878;2022-12-20T14:07:20;2.80;;;1.30;;
68010;SDS011;54794;48.348;7.878;2022-12-20T14:10:11;1.60;;;0.90;;
68010;SDS011;54794;48.348;7.878;2022-12-20T14:13:12;1.92;;;1.00;;
68010;SDS011;54794;48.348;7.878;2022-12-20T14:16:24;3.80;;;1.00;;
68010;SDS011;54794;48.348;7.878;2022-12-20T14:19:10;3.45;;;1.15;;
68010;SDS011;54794;48.348;7.878;2022-12-20T14:21:50;6.15;;;0.90;;
68010;SDS011;54794;48.348;7.878;2022-12-20T14:24:36;1.80;;;0.77;;
68010;SDS011;54794;48.348;7.878;2022-12-20T14:27:20;1.15;;;0.70;;
68010;SDS011;54794;48.348;7.878;2022-12-20T14:30:24;1.10;;;0.70;;
68010;SDS011;54794;48.348;7.878;2022-12-20T14:33:40;0.63;;;0.50;;
68010;SDS011;54794;48.348;7.878;2022-12-20T14:36:19;1.67;;;0.63;;
68010;SDS011;54794;48.348;7.878;2022-12-20T14:39:28;0.82;;;0.50;;
68010;SDS011;54794;48.348;7.878;2022-12-20T14:42:19;1.02;;;0.60;;
68010;SDS011;54794;48.348;7.878;2022-12-20T14:45:03;2.50;;;0.40;;
68010;SDS011;54794;48.348;7.878;2022-12-20T14:48:13;2.47;;;0.45;;
68010;SDS011;54794;48.348;7.878;2022-12-20T14:51:03;1.30;;;0.57;;
68010;SDS011;54794;48.348;7.878;2022-12-20T14:53:51;1.02;;;0.55;;
68010;SDS011;54794;48.348;7.878;2022-12-20T14:57:25;0.60;;;0.50;;
68010;SDS011;54794;48.348;7.878;2022-12-20T15:00:27;1.38;;;0.43;;
68010;SDS011;54794;48.348;7.878;2022-12-20T15:03:21;1.60;;;0.43;;
68010;SDS011;54794;48.348;7.878;2022-12-20T15:06:26;0.57;;;0.40;;
68010;SDS011;54794;48.348;7.878;2022-12-20T15:09:27;0.63;;;0.43;;
68010;SDS011;54794;48.348;7.878;2022-12-20T15:12:30;1.67;;;0.50;;
68010;SDS011;54794;48.348;7.878;2022-12-20T15:18:55;0.82;;;0.47;;
68010;SDS011;54794;48.348;7.878;2022-12-20T15:22:09;1.63;;;0.60;;
68010;SDS011;54794;48.348;7.878;2022-12-20T15:25:13;1.30;;;0.52;;
68010;SDS011;54794;48.348;7.878;2022-12-20T15:27:52;1.17;;;0.60;;
68010;SDS011;54794;48.348;7.878;2022-12-20T15:30:37;1.42;;;0.70;;
68010;SDS011;54794;48.348;7.878;2022-12-20T15:33:43;1.92;;;0.85;;
68010;SDS011;54794;48.348;7.878;2022-12-20T15:36:23;1.45;;;0.88;;
68010;SDS011;54794;48.348;7.878;2022-12-20T15:39:21;2.20;;;0.80;;
68010;SDS011;54794;48.348;7.878;2022-12-20T15:41:55;1.67;;;0.82;;
68010;SDS011;54794;48.348;7.878;2022-12-20T15:48:09;1.25;;;0.65;;
68010;SDS011;54794;48.348;7.878;2022-12-20T15:51:37;1.65;;;0.60;;
68010;SDS011;54794;48.348;7.878;2022-12-20T15:54:29;0.68;;;0.55;;
68010;SDS011;54794;48.348;7.878;2022-12-20T15:57:26;0.77;;;0.52;;
68010;SDS011;54794;48.348;7.878;2022-12-20T16:00:20;0.95;;;0.55;;
68010;SDS011;54794;48.348;7.878;2022-12-20T16:03:18;0.77;;;0.45;;
68010;SDS011;54794;48.348;7.878;2022-12-20T16:06:23;0.80;;;0.47;;
68010;SDS011;54794;48.348;7.878;2022-12-20T16:12:33;1.77;;;0.60;;
68010;SDS011;54794;48.348;7.878;2022-12-20T16:15:02;0.82;;;0.50;;
68010;SDS011;54794;48.348;7.878;2022-12-20T16:17:30;0.90;;;0.43;;
68010;SDS011;54794;48.348;7.878;2022-12-20T16:20:11;0.98;;;0.43;;
68010;SDS011;54794;48.348;7.878;2022-12-20T16:22:48;0.70;;;0.40;;
68010;SDS011;54794;48.348;7.878;2022-12-20T16:29:18;0.80;;;0.45;;
68010;SDS011;54794;48.348;7.878;2022-12-20T16:31:44;0.93;;;0.47;;
68010;SDS011;54794;48.348;7.878;2022-12-20T16:34:12;0.93;;;0.50;;
68010;SDS011;54794;48.348;7.878;2022-12-20T16:36:44;0.52;;;0.50;;
68010;SDS011;54794;48.348;7.878;2022-12-20T16:39:12;0.88;;;0.50;;
68010;SDS011;54794;48.348;7.878;2022-12-20T16:41:39;1.13;;;0.63;;
68010;SDS011;54794;48.348;7.878;2022-12-20T16:47:37;0.75;;;0.60;;
68010;SDS011;54794;48.348;7.878;2022-12-20T16:50:36;1.10;;;0.45;;
68010;SDS011;54794;48.348;7.878;2022-12-20T16:53:37;1.42;;;0.50;;
68010;SDS011;54794;48.348;7.878;2022-12-20T16:56:54;0.52;;;0.50;;
68010;SDS011;54794;48.348;7.878;2022-12-20T17:03:12;1.00;;;0.75;;
68010;SDS011;54794;48.348;7.878;2022-12-20T17:06:10;1.17;;;0.80;;
68010;SDS011;54794;48.348;7.878;2022-12-20T17:09:05;1.42;;;0.70;;
68010;SDS011;54794;48.348;7.878;2022-12-20T17:11:43;2.03;;;1.08;;
68010;SDS011;54794;48.348;7.878;2022-12-20T17:14:36;1.75;;;1.10;;
68010;SDS011;54794;48.348;7.878;2022-12-20T17:17:29;3.30;;;0.93;;
68010;SDS011;54794;48.348;7.878;2022-12-20T17:20:18;2.05;;;1.20;;
68010;SDS011;54794;48.348;7.878;2022-12-20T17:23:12;3.58;;;2.08;;
68010;SDS011;54794;48.348;7.878;2022-12-20T17:26:04;4.28;;;2.00;;
68010;SDS011;54794;48.348;7.878;2022-12-20T17:29:30;1.90;;;1.08;;
68010;SDS011;54794;48.348;7.878;2022-12-20T17:32:16;1.17;;;0.90;;
68010;SDS011;54794;48.348;7.878;2022-12-20T17:38:21;2.30;;;1.20;;
68010;SDS011;54794;48.348;7.878;2022-12-20T17:41:01;1.90;;;1.30;;
68010;SDS011;54794;48.348;7.878;2022-12-20T17:43:42;1.70;;;1.27;;
68010;SDS011;54794;48.348;7.878;2022-12-20T17:46:34;2.47;;;1.50;;
68010;SDS011;54794;48.348;7.878;2022-12-20T17:49:34;1.92;;;1.02;;
68010;SDS011;54794;48.348;7.878;2022-12-20T17:52:31;1.63;;;1.05;;
68010;SDS011;54794;48.348;7.878;2022-12-20T17:55:33;2.42;;;0.85;;
68010;SDS011;54794;48.348;7.878;2022-12-20T17:58:12;1.70;;;0.95;;
68010;SDS011;54794;48.348;7.878;2022-12-20T18:00:58;2.20;;;1.20;;
68010;SDS011;54794;48.348;7.878;2022-12-20T18:03:54;3.17;;;1.20;;
68010;SDS011;54794;48.348;7.878;2022-12-20T18:06:46;2.58;;;1.27;;
68010;SDS011;54794;48.348;7.878;2022-12-20T18:09:36;1.50;;;1.00;;
68010;SDS011;54794;48.348;7.878;2022-12-20T18:12:22;3.80;;;1.40;;
68010;SDS011;54794;48.348;7.878;2022-12-20T18:15:21;1.95;;;1.40;;
68010;SDS011;54794;48.348;7.878;2022-12-20T18:18:04;3.03;;;1.58;;
68010;SDS011;54794;48.348;7.878;2022-12-20T18:20:59;2.47;;;1.55;;
68010;SDS011;54794;48.348;7.878;2022-12-20T18:23:56;2.60;;;1.67;;
68010;SDS011;54794;48.348;7.878;2022-12-20T18:27:07;3.53;;;1.70;;
68010;SDS011;54794;48.348;7.878;2022-12-20T18:30:02;3.88;;;2.10;;
68010;SDS011;54794;48.348;7.878;2022-12-20T18:32:44;4.57;;;2.50;;
68010;SDS011;54794;48.348;7.878;2022-12-20T18:35:15;5.25;;;2.53;;
68010;SDS011;54794;48.348;7.878;2022-12-20T18:37:42;6.38;;;3.17;;
68010;SDS011;54794;48.348;7.878;2022-12-20T18:40:19;3.83;;;2.35;;
68010;SDS011;54794;48.348;7.878;2022-12-20T18:43:19;6.43;;;2.47;;
68010;SDS011;54794;48.348;7.878;2022-12-20T18:46:28;4.38;;;2.13;;
68010;SDS011;54794;48.348;7.878;2022-12-20T18:49:39;3.53;;;2.10;;
68010;SDS011;54794;48.348;7.878;2022-12-20T18:52:20;5.03;;;2.42;;
68010;SDS011;54794;48.348;7.878;2022-12-20T18:55:12;3.70;;;1.75;;
68010;SDS011;54794;48.348;7.878;2022-12-20T18:57:57;4.03;;;2.05;;
68010;SDS011;54794;48.348;7.878;2022-12-20T19:00:45;4.70;;;2.55;;
68010;SDS011;54794;48.348;7.878;2022-12-20T19:03:43;4.22;;;2.38;;
68010;SDS011;54794;48.348;7.878;2022-12-20T19:06:35;4.75;;;2.15;;
68010;SDS011;54794;48.348;7.878;2022-12-20T19:09:25;5.93;;;2.43;;
68010;SDS011;54794;48.348;7.878;2022-12-20T19:12:09;6.05;;;3.15;;
68010;SDS011;54794;48.348;7.878;2022-12-20T19:14:55;5.15;;;2.38;;
68010;SDS011;54794;48.348;7.878;2022-12-20T19:18:10;5.53;;;2.63;;
68010;SDS011;54794;48.348;7.878;2022-12-20T19:20:49;5.05;;;2.40;;
68010;SDS011;54794;48.348;7.878;2022-12-20T19:24:21;8.35;;;2.65;;
68010;SDS011;54794;48.348;7.878;2022-12-20T19:27:18;4.38;;;2.40;;
68010;SDS011;54794;48.348;7.878;2022-12-20T19:30:04;5.22;;;1.85;;
68010;SDS011;54794;48.348;7.878;2022-12-20T19:32:32;5.47;;;2.50;;
68010;SDS011;54794;48.348;7.878;2022-12-20T19:35:01;6.25;;;2.78;;
68010;SDS011;54794;48.348;7.878;2022-12-20T19:37:57;4.85;;;2.80;;
68010;SDS011;54794;48.348;7.878;2022-12-20T19:41:34;6.00;;;2.47;;
68010;SDS011;54794;48.348;7.878;2022-12-20T19:44:36;4.93;;;2.88;;
68010;SDS011;54794;48.348;7.878;2022-12-20T19:47:20;7.25;;;3.50;;
68010;SDS011;54794;48.348;7.878;2022-12-20T19:49:57;6.20;;;3.15;;
68010;SDS011;54794;48.348;7.878;2022-12-20T19:52:49;7.47;;;3.22;;
68010;SDS011;54794;48.348;7.878;2022-12-20T19:55:40;6.07;;;3.03;;
68010;SDS011;54794;48.348;7.878;2022-12-20T19:58:47;4.75;;;2.80;;
68010;SDS011;54794;48.348;7.878;2022-12-20T20:01:36;5.70;;;2.70;;
68010;SDS011;54794;48.348;7.878;2022-12-20T20:04:22;3.95;;;2.40;;
68010;SDS011;54794;48.348;7.878;2022-12-20T20:07:13;5.40;;;2.70;;
68010;SDS011;54794;48.348;7.878;2022-12-20T20:10:06;3.83;;;2.33;;
68010;SDS011;54794;48.348;7.878;2022-12-20T20:13:22;4.07;;;2.17;;
68010;SDS011;54794;48.348;7.878;2022-12-20T20:16:09;4.03;;;2.55;;
68010;SDS011;54794;48.348;7.878;2022-12-20T20:19:08;5.18;;;3.30;;
68010;SDS011;54794;48.348;7.878;2022-12-20T20:24:50;4.10;;;2.63;;
68010;SDS011;54794;48.348;7.878;2022-12-20T20:27:43;5.22;;;3.35;;
68010;SDS011;54794;48.348;7.878;2022-12-20T20:30:33;4.13;;;2.30;;
68010;SDS011;54794;48.348;7.878;2022-12-20T20:33:32;3.92;;;2.60;;
68010;SDS011;54794;48.348;7.878;2022-12-20T20:37:03;3.33;;;2.50;;
68010;SDS011;54794;48.348;7.878;2022-12-20T20:40:10;2.53;;;1.60;;